Aeroporto :
LOGIN :

Iscrizione | Disclaimer

   EN    FR    IT 

 










Sommario :    VFR   VFR Marginale   IFR   IFR Intensivo   IFR Molto Intensivo
Visibilità : 
Base nubi : 
>= 8 km
>= 3000ft
5 / 8 km
1000 / 3000 ft
1500m / 5 km
500 / 1000 ft
800 / 1500m
200 / 500 ft
< 800m
< 200 ft
Simboli :   Temporali  Nebbia  Neve Forte  Precipitazioni Forti  Vento > 20 kt
SIGMETs :   Varie  Temporali  Ghiacco  Turbolenza  Onda orograficha  Ceneri Vulcaniche







- Altitudine del aeroporto : 44 ft
- Codice IATA : SOU
- Carte del aeroporto


EGHI - Southampton

ULTIMO METAR :
  • 191350Z VRB03KT 9999 SCT035 16/07 Q1009

METARs OBSOLETI :
  • 191320Z 09004KT 030V140 9999 FEW035 SCT040 17/08 Q1009
  • 191250Z 05004KT 350V130 9999 FEW035 SCT041 17/07 Q1009
  • 191220Z 03004KT 330V100 9999 SCT035 17/07 Q1010
  • 191150Z 07004KT 030V120 9999 SCT032 16/08 Q1010
  • 191120Z 02005KT 340V050 9999 SCT028 16/08 Q1010

TAF TAF EGHI
Valido dal 19 a 12 ore il 19 a 21 ore UTC


191054Z 1912/1921 VRB04KT 9999 SCT035
PROB40
TEMPO 1912/1919 3000 +SHRA
PROB30
TEMPO 1919/1921 6000 SHRA
ATIS : +44 23 8062 7103
Nessun NOTAM noto per questo aeroporto.



MetMap, La meteo Aeronautica in un colpo d'occhio ! - Copyright ORBIFLY Dicembre 2007 - Disclaimer

ORBIFLY MET'MAP TEAM :

Programmazione e sviluppo : Alexandra Zaïnal
Concezione e sviluppo : Baudouin d'Aumeries
Co-Programmazione e sviluppo : Marc-Olivier Méhu
Supporto tecnico e logistico : Manuel Goepfert
Aiuto per la traduzione : Arnaldo La Scala

Contatto : metmap@orbifly.com




FONTI E CREDITI :

   NOAA